Time;durP1;ratioP1;P1;durP2;ratioP2;P2;SDS_P1;SDS_P2;PMS_P1;PMS_P2;Temp;Humidity;BMP_temperature;BMP_pressure;BME280_temperature;BME280_humidity;BME280_pressure;Samples;Min_cycle;Max_cycle;Signal;HPM_P1;HPM_P2
2021/12/10 00:02:02;;;;;;;88.00;43.80;;;;;;;-2.79;98.77;95308.78;107430;1285;55256;-76
2021/12/10 00:04:36;;;;;;;87.80;44.10;;;;;;;-2.81;98.88;95312.56;107472;1284;36075;-76
2021/12/10 00:07:10;;;;;;;89.10;42.30;;;;;;;-2.80;98.82;95308.45;107436;1284;33527;-76
2021/12/10 00:09:43;;;;;;;94.10;44.20;;;;;;;-2.77;98.82;95307.35;107523;1284;36756;-76
2021/12/10 00:12:15;;;;;;;98.00;44.10;;;;;;;-2.72;98.83;95300.98;107499;1284;52176;-76
2021/12/10 00:14:44;;;;;;;84.70;41.00;;;;;;;-2.67;98.94;95294.55;107394;1284;37819;-76
2021/12/10 00:17:16;;;;;;;90.60;45.60;;;;;;;-2.62;98.90;95299.95;107397;1281;44482;-76
2021/12/10 00:19:50;;;;;;;100.20;46.10;;;;;;;-2.57;99.03;95292.46;107520;1284;31816;-76
2021/12/10 00:22:21;;;;;;;83.90;42.50;;;;;;;-2.55;98.90;95291.41;107617;1284;48122;-76
2021/12/10 00:24:52;;;;;;;87.50;41.50;;;;;;;-2.58;98.77;95288.98;107428;1285;44180;-76
2021/12/10 00:27:29;;;;;;;86.30;41.80;;;;;;;-2.60;98.68;95280.11;107426;1282;36642;-76
2021/12/10 00:30:05;;;;;;;89.70;41.40;;;;;;;-2.59;98.72;95276.05;107341;1284;67648;-76
2021/12/10 00:32:38;;;;;;;87.10;40.60;;;;;;;-2.59;98.84;95275.73;107442;1284;39481;-76
2021/12/10 00:35:13;;;;;;;87.50;44.10;;;;;;;-2.57;98.60;95281.21;107458;1284;30719;-76
2021/12/10 00:37:42;;;;;;;94.50;49.10;;;;;;;-2.56;98.68;95287.67;107423;1284;44536;-76
2021/12/10 00:40:14;;;;;;;97.90;43.10;;;;;;;-2.58;98.59;95287.56;107455;1285;34730;-76
2021/12/10 00:42:43;;;;;;;87.90;41.00;;;;;;;-2.60;98.32;95282.51;107481;1282;65467;-76
2021/12/10 00:45:16;;;;;;;86.10;41.80;;;;;;;-2.62;98.48;95278.54;107541;1283;37682;-76
2021/12/10 00:47:46;;;;;;;91.70;41.80;;;;;;;-2.63;98.20;95272.23;107604;1284;35866;-76
2021/12/10 00:50:19;;;;;;;84.40;41.50;;;;;;;-2.67;98.39;95268.46;107622;1284;39903;-76
2021/12/10 00:52:49;;;;;;;91.10;42.10;;;;;;;-2.65;98.50;95253.46;107629;1284;32833;-76
2021/12/10 00:55:18;;;;;;;96.70;42.60;;;;;;;-2.62;98.62;95257.20;107603;1284;35092;-76
2021/12/10 00:57:47;;;;;;;81.20;39.00;;;;;;;-2.59;98.46;95259.54;107487;1284;38084;-76
2021/12/10 01:00:20;;;;;;;97.00;45.10;;;;;;;-2.60;98.39;95255.88;107494;1285;39136;-76
2021/12/10 01:02:49;;;;;;;91.60;44.40;;;;;;;-2.60;98.42;95257.91;107441;1284;72036;-76
2021/12/10 01:05:21;;;;;;;89.60;42.30;;;;;;;-2.64;98.35;95256.33;107483;1284;39792;-76
2021/12/10 01:07:50;;;;;;;94.70;44.20;;;;;;;-2.71;98.33;95259.34;107459;1284;36314;-76
2021/12/10 01:10:29;;;;;;;91.30;41.90;;;;;;;-2.74;98.46;95266.35;107518;1281;34704;-76
2021/12/10 01:13:10;;;;;;;91.50;43.70;;;;;;;-2.77;98.53;95278.77;107422;1285;35081;-76
2021/12/10 01:15:55;;;;;;;92.30;42.80;;;;;;;-2.81;98.45;95278.21;107409;1285;48169;-76
2021/12/10 01:24:14;;;;;;;96.00;44.90;;;;;;;-2.87;98.86;95288.52;107417;1284;31079;-76
2021/12/10 01:26:58;;;;;;;104.40;45.90;;;;;;;-2.82;99.00;95290.08;107424;1285;35453;-76
2021/12/10 01:29:30;;;;;;;95.20;43.90;;;;;;;-2.77;99.08;95277.38;107417;1285;38369;-76
2021/12/10 01:32:01;;;;;;;103.00;44.20;;;;;;;-2.74;99.07;95264.64;107427;1285;39817;-76
2021/12/10 01:34:31;;;;;;;100.50;44.90;;;;;;;-2.71;99.15;95257.23;107548;1284;33692;-76
2021/12/10 01:37:01;;;;;;;;;;;;;;;-2.69;99.08;95258.60;107441;1284;56247;-76
2021/12/10 01:39:34;;;;;;;97.40;43.90;;;;;;;-2.68;99.09;95260.02;107403;1284;40000;-76
2021/12/10 01:42:15;;;;;;;95.50;43.60;;;;;;;-2.69;99.22;95263.48;107560;1284;40431;-76
2021/12/10 01:44:50;;;;;;;83.90;41.60;;;;;;;-2.69;99.18;95270.12;107435;1285;39136;-76
2021/12/10 01:47:23;;;;;;;76.30;35.90;;;;;;;-2.66;99.20;95269.94;107534;1284;32918;-76
2021/12/10 01:49:52;;;;;;;102.10;44.60;;;;;;;-2.65;98.99;95266.55;107417;1284;33458;-76
2021/12/10 01:52:22;;;;;;;92.40;41.70;;;;;;;-2.64;99.23;95264.74;107384;1285;47173;-76
2021/12/10 01:54:54;;;;;;;93.40;43.00;;;;;;;-2.61;99.27;95267.08;107533;1284;37203;-76
2021/12/10 01:57:27;;;;;;;85.80;41.40;;;;;;;-2.58;99.28;95264.29;107457;1285;36135;-76
2021/12/10 01:59:57;;;;;;;80.70;39.30;;;;;;;-2.54;99.43;95260.72;107579;1282;29936;-76
2021/12/10 02:02:30;;;;;;;88.20;44.30;;;;;;;-2.52;99.22;95263.23;107535;1284;33065;-76
2021/12/10 02:05:10;;;;;;;100.10;47.30;;;;;;;-2.55;99.12;95267.86;107531;1284;45813;-76
2021/12/10 02:07:39;;;;;;;;;;;;;;;-2.60;98.90;95264.92;107540;1283;35227;-76
2021/12/10 02:10:11;;;;;;;103.70;47.70;;;;;;;-2.62;99.11;95257.30;107513;1284;44148;-76
2021/12/10 02:12:40;;;;;;;103.50;53.30;;;;;;;-2.63;99.04;95252.04;107547;1285;34321;-76
2021/12/10 02:15:12;;;;;;;112.20;51.90;;;;;;;-2.63;99.06;95247.84;107467;1284;38833;-76
2021/12/10 02:17:44;;;;;;;107.90;51.10;;;;;;;-2.61;99.20;95243.72;107443;1284;47225;-76
2021/12/10 02:20:17;;;;;;;91.10;46.10;;;;;;;-2.58;99.23;95232.64;107434;1281;36313;-76
2021/12/10 02:22:47;;;;;;;89.50;44.20;;;;;;;-2.54;99.27;95226.19;107607;1284;34670;-76
2021/12/10 02:25:18;;;;;;;86.80;45.20;;;;;;;-2.50;99.30;95222.27;107476;1285;37523;-76
2021/12/10 02:27:46;;;;;;;76.10;37.80;;;;;;;-2.45;99.53;95230.03;107584;1281;47442;-76
2021/12/10 02:30:33;;;;;;;77.20;38.30;;;;;;;-2.42;99.41;95218.05;107414;1284;39904;-76
2021/12/10 02:33:02;;;;;;;78.40;38.50;;;;;;;-2.36;99.38;95222.93;107473;1285;31245;-76
2021/12/10 02:35:31;;;;;;;77.70;37.30;;;;;;;-2.33;99.34;95227.20;107435;1285;50171;-76
2021/12/10 02:38:00;;;;;;;74.00;36.80;;;;;;;-2.31;99.32;95223.39;107412;1281;43164;-76
2021/12/10 02:40:31;;;;;;;74.10;37.30;;;;;;;-2.31;99.46;95222.98;107435;1285;43486;-76
2021/12/10 02:43:02;;;;;;;81.90;38.40;;;;;;;-2.30;99.34;95226.83;107552;1284;39969;-76
2021/12/10 02:45:31;;;;;;;86.10;39.10;;;;;;;-2.30;99.44;95239.29;107387;1284;40034;-76
2021/12/10 02:48:01;;;;;;;83.60;40.60;;;;;;;-2.33;99.12;95234.52;107397;1282;42222;-76
2021/12/10 02:50:32;;;;;;;86.10;40.20;;;;;;;-2.31;99.37;95231.48;107396;1285;39191;-75
2021/12/10 02:53:03;;;;;;;78.10;39.60;;;;;;;-2.30;99.18;95241.22;107451;1285;38335;-76
2021/12/10 02:55:33;;;;;;;73.10;38.30;;;;;;;-2.28;99.20;95237.71;107385;1285;49522;-76
2021/12/10 02:58:05;;;;;;;78.60;39.70;;;;;;;-2.27;99.10;95228.44;107483;1285;35053;-76
2021/12/10 03:00:41;;;;;;;94.60;42.30;;;;;;;-2.31;98.98;95227.55;107577;1284;31510;-76
2021/12/10 03:03:12;;;;;;;81.00;38.60;;;;;;;-2.31;98.98;95228.52;107436;1285;51367;-76
2021/12/10 03:05:41;;;;;;;95.70;42.70;;;;;;;-2.39;98.79;95224.80;107514;1284;33895;-76
2021/12/10 03:08:10;;;;;;;95.50;45.20;;;;;;;-2.50;98.78;95233.69;107522;1284;46153;-76
2021/12/10 03:10:39;;;;;;;103.30;45.20;;;;;;;-2.58;98.65;95243.98;107474;1285;30128;-76
2021/12/10 03:13:09;;;;;;;92.10;42.50;;;;;;;-2.64;98.58;95256.64;107397;1285;39731;-76
2021/12/10 03:15:40;;;;;;;93.60;42.40;;;;;;;-2.66;98.85;95254.73;107358;1285;36952;-76
2021/12/10 03:18:12;;;;;;;80.10;39.00;;;;;;;-2.67;98.81;95259.29;107404;1285;40335;-76
2021/12/10 03:20:41;;;;;;;89.30;43.50;;;;;;;-2.68;98.75;95257.42;107436;1285;37232;-76
2021/12/10 03:23:11;;;;;;;97.10;44.60;;;;;;;-2.77;98.81;95262.81;107442;1284;52113;-76
2021/12/10 03:25:39;;;;;;;;;;;;;;;-2.83;98.93;95273.73;107452;1285;32538;-76
2021/12/10 03:28:09;;;;;;;83.70;42.30;;;;;;;-2.85;99.02;95269.62;107431;1285;44024;-76
2021/12/10 03:30:41;;;;;;;85.00;42.10;;;;;;;-2.83;99.12;95271.97;107392;1285;40784;-76
2021/12/10 03:33:10;;;;;;;87.40;42.00;;;;;;;-2.79;99.20;95279.42;107470;1285;38962;-76
2021/12/10 03:35:43;;;;;;;63.20;29.40;;;;;;;-2.76;99.04;95275.16;107499;1284;46454;-76
2021/12/10 03:38:17;;;;;;;80.80;40.20;;;;;;;-2.75;99.15;95286.20;107466;1285;38700;-76
2021/12/10 03:40:46;;;;;;;88.40;41.20;;;;;;;-2.75;99.06;95290.08;107430;1285;64334;-75
2021/12/10 03:43:17;;;;;;;78.50;40.40;;;;;;;-2.78;99.02;95292.00;107431;1285;32504;-76
2021/12/10 03:45:50;;;;;;;82.80;38.80;;;;;;;-2.79;99.10;95297.89;107504;1285;41655;-75
2021/12/10 03:48:22;;;;;;;90.70;44.40;;;;;;;-2.80;99.24;95297.59;107597;1285;29863;-76
2021/12/10 03:50:52;;;;;;;86.40;40.20;;;;;;;-2.84;99.18;95291.69;107419;1285;42237;-76
2021/12/10 03:53:20;;;;;;;;;;;;;;;-2.82;99.27;95291.30;107461;1285;34786;-76
2021/12/10 03:55:50;;;;;;;88.40;42.30;;;;;;;-2.79;99.32;95297.94;107630;1284;37046;-76
2021/12/10 03:58:19;;;;;;;74.10;37.20;;;;;;;-2.73;99.39;95296.70;107511;1284;36575;-76
2021/12/10 04:00:52;;;;;;;80.20;39.10;;;;;;;-2.67;99.39;95287.54;107515;1285;43090;-76
2021/12/10 04:03:23;;;;;;;75.20;37.90;;;;;;;-2.64;99.35;95279.15;107521;1284;30018;-76
2021/12/10 04:05:58;;;;;;;81.70;40.60;;;;;;;-2.61;99.41;95273.91;107420;1285;34494;-76
2021/12/10 04:08:27;;;;;;;81.60;40.10;;;;;;;-2.60;99.31;95268.71;107468;1284;32997;-76
2021/12/10 04:10:56;;;;;;;78.90;40.20;;;;;;;-2.56;99.36;95266.13;107466;1285;36637;-76
2021/12/10 04:13:25;;;;;;;82.50;38.60;;;;;;;-2.53;99.38;95263.61;107464;1285;32279;-76
2021/12/10 04:15:55;;;;;;;81.60;38.10;;;;;;;-2.54;99.16;95263.53;107383;1285;41154;-76
2021/12/10 04:18:24;;;;;;;79.40;38.70;;;;;;;-2.55;99.38;95264.07;107533;1284;33114;-76
2021/12/10 04:20:53;;;;;;;82.30;40.60;;;;;;;-2.54;99.44;95261.94;107514;1284;38300;-76
2021/12/10 04:23:24;;;;;;;71.60;38.10;;;;;;;-2.51;99.44;95255.67;107514;1284;38582;-76
2021/12/10 04:25:53;;;;;;;83.90;40.20;;;;;;;-2.47;99.25;95257.25;107586;1284;45911;-76
2021/12/10 04:28:22;;;;;;;83.40;39.30;;;;;;;-2.42;99.53;95259.36;107501;1284;39099;-76
2021/12/10 04:30:52;;;;;;;77.20;39.00;;;;;;;-2.38;99.52;95268.13;107520;1284;40037;-76
2021/12/10 04:33:25;;;;;;;78.50;38.60;;;;;;;-2.39;99.17;95273.13;107515;1284;40819;-76
2021/12/10 04:35:58;;;;;;;83.50;39.70;;;;;;;-2.42;99.32;95277.73;107496;1284;44477;-76
2021/12/10 04:38:29;;;;;;;76.50;39.30;;;;;;;-2.38;99.43;95287.20;107540;1284;37930;-75
2021/12/10 04:41:00;;;;;;;74.10;36.80;;;;;;;-2.34;99.43;95287.80;107475;1284;50955;-76
2021/12/10 04:43:35;;;;;;;75.90;38.00;;;;;;;-2.31;99.29;95283.66;107555;1284;30833;-76
2021/12/10 04:46:05;;;;;;;70.50;36.90;;;;;;;-2.28;99.34;95283.83;107497;1284;47388;-76
2021/12/10 04:48:51;;;;;;;77.00;39.30;;;;;;;-2.25;99.38;95281.38;107458;1284;46380;-76
2021/12/10 04:51:22;;;;;;;76.30;38.40;;;;;;;-2.24;99.45;95286.35;107630;1284;29076;-76
2021/12/10 04:53:53;;;;;;;76.20;36.50;;;;;;;-2.20;99.31;95287.40;107596;1284;38844;-76
2021/12/10 04:56:22;;;;;;;65.50;32.90;;;;;;;-2.18;99.33;95294.19;107505;1284;45364;-76
2021/12/10 04:58:52;;;;;;;80.70;41.70;;;;;;;-2.19;99.15;95293.34;107548;1284;29152;-76
2021/12/10 05:01:21;;;;;;;76.30;41.00;;;;;;;-2.22;99.19;95291.52;107545;1284;44826;-76
2021/12/10 05:03:50;;;;;;;81.20;40.00;;;;;;;-2.22;99.11;95297.30;107618;1284;34156;-76
2021/12/10 05:06:22;;;;;;;78.60;40.80;;;;;;;-2.18;99.06;95294.55;107514;1284;40320;-76
2021/12/10 05:08:52;;;;;;;80.50;42.50;;;;;;;-2.16;99.00;95286.86;107538;1284;33589;-76
2021/12/10 05:11:20;;;;;;;81.00;42.30;;;;;;;-2.13;99.00;95282.29;107460;1285;59118;-76
2021/12/10 05:13:50;;;;;;;84.40;42.80;;;;;;;-2.12;98.98;95279.71;107487;1285;52148;-76
2021/12/10 05:16:25;;;;;;;80.30;41.40;;;;;;;-2.13;99.21;95273.50;107575;1281;36289;-76
2021/12/10 05:18:58;;;;;;;81.00;43.70;;;;;;;-2.16;98.76;95266.82;107405;1285;44493;-76
2021/12/10 05:21:29;;;;;;;84.00;41.10;;;;;;;-2.16;99.08;95266.02;107455;1281;47445;-76
2021/12/10 05:24:00;;;;;;;93.40;45.40;;;;;;;-2.15;99.27;95263.60;107574;1284;32165;-76
2021/12/10 05:26:28;;;;;;;;;;;;;;;-2.14;98.89;95265.35;107433;1284;37775;-76
2021/12/10 05:28:57;;;;;;;81.50;36.60;;;;;;;-2.16;99.11;95267.29;107436;1285;41500;-76
2021/12/10 05:31:26;;;;;;;81.30;40.90;;;;;;;-2.15;99.20;95263.92;107500;1284;34557;-76
2021/12/10 05:33:55;;;;;;;75.70;39.50;;;;;;;-2.18;99.11;95261.80;107485;1284;51677;-76
2021/12/10 05:36:23;;;;;;;74.70;37.60;;;;;;;-2.17;99.22;95270.17;107539;1284;37103;-76
2021/12/10 05:38:53;;;;;;;75.90;38.20;;;;;;;-2.15;99.10;95270.73;107440;1285;45906;-76
2021/12/10 05:41:21;;;;;;;70.90;38.50;;;;;;;-2.13;99.32;95271.74;107426;1285;40977;-76
2021/12/10 05:43:51;;;;;;;75.20;37.20;;;;;;;-2.10;99.28;95277.94;107573;1284;33218;-76
2021/12/10 05:46:20;;;;;;;73.80;37.80;;;;;;;-2.08;99.44;95279.90;107514;1284;35825;-76
2021/12/10 05:48:49;;;;;;;77.20;37.50;;;;;;;-2.06;99.41;95282.02;107579;1284;33156;-76
2021/12/10 05:51:20;;;;;;;71.40;34.40;;;;;;;-2.06;99.21;95281.04;107604;1284;31235;-76
2021/12/10 05:53:49;;;;;;;80.10;38.70;;;;;;;-2.04;99.28;95287.60;107591;1284;38413;-76
2021/12/10 05:56:18;;;;;;;69.70;36.70;;;;;;;-2.02;99.37;95296.37;107600;1284;32496;-76
2021/12/10 05:58:47;;;;;;;71.80;37.40;;;;;;;-2.00;99.27;95296.25;107583;1284;34865;-76
2021/12/10 06:01:18;;;;;;;74.70;38.30;;;;;;;-1.99;99.15;95302.54;107616;1284;33326;-76
2021/12/10 06:03:52;;;;;;;77.90;36.60;;;;;;;-1.99;99.31;95306.08;107583;1284;39570;-76
2021/12/10 06:06:24;;;;;;;73.00;36.20;;;;;;;-1.97;99.34;95309.70;107536;1284;44937;-76
2021/12/10 06:08:54;;;;;;;73.60;39.00;;;;;;;-1.98;99.36;95315.10;107492;1285;49873;-76
2021/12/10 06:11:25;;;;;;;67.90;34.50;;;;;;;-1.98;99.28;95312.39;107514;1284;34401;-75
2021/12/10 06:13:54;;;;;;;75.50;39.20;;;;;;;-2.02;99.23;95312.71;107559;1284;36304;-76
2021/12/10 06:16:24;;;;;;;79.40;37.90;;;;;;;-2.06;99.21;95315.66;107449;1281;45959;-76
2021/12/10 06:18:53;;;;;;;75.20;38.00;;;;;;;-2.04;99.22;95321.11;107448;1285;33771;-76
2021/12/10 06:21:23;;;;;;;73.80;39.60;;;;;;;-2.02;99.41;95322.50;107440;1285;37514;-76
2021/12/10 06:23:52;;;;;;;75.70;37.70;;;;;;;-1.99;99.19;95319.64;107453;1285;46632;-76
2021/12/10 06:26:21;;;;;;;67.70;35.60;;;;;;;-1.96;99.39;95319.95;107510;1283;41888;-75
2021/12/10 06:28:49;;;;;;;70.10;34.70;;;;;;;-1.95;99.45;95323.10;107570;1284;43958;-75
2021/12/10 06:31:21;;;;;;;66.00;33.60;;;;;;;-1.96;99.24;95320.08;107554;1285;32146;-76
2021/12/10 06:33:51;;;;;;;71.00;33.60;;;;;;;-1.95;99.27;95314.79;107514;1285;46783;-76
2021/12/10 06:36:21;;;;;;;62.90;34.70;;;;;;;-1.94;99.43;95315.84;107535;1285;36467;-76
2021/12/10 06:38:51;;;;;;;69.20;35.80;;;;;;;-1.92;99.50;95318.59;107503;1285;41443;-76
2021/12/10 06:41:21;;;;;;;77.70;38.10;;;;;;;-1.89;99.43;95317.48;107536;1284;30200;-76
2021/12/10 06:43:49;;;;;;;;;;;;;;;-1.88;99.34;95313.03;107556;1284;39816;-76
2021/12/10 06:46:18;;;;;;;63.70;34.10;;;;;;;-1.89;99.22;95313.44;107494;1285;40485;-76
2021/12/10 06:48:48;;;;;;;68.50;35.80;;;;;;;-1.88;99.46;95316.77;107538;1285;30137;-76
2021/12/10 06:51:21;;;;;;;75.00;38.60;;;;;;;-1.90;99.42;95316.43;107457;1285;46570;-76
2021/12/10 06:53:51;;;;;;;75.20;36.60;;;;;;;-1.91;99.35;95318.81;107562;1285;33993;-75
2021/12/10 06:56:24;;;;;;;80.20;40.40;;;;;;;-1.90;99.38;95316.13;107469;1285;63217;-76
2021/12/10 06:58:54;;;;;;;76.40;41.80;;;;;;;-1.91;99.19;95315.54;107407;1285;42802;-76
2021/12/10 07:01:27;;;;;;;78.90;41.30;;;;;;;-1.94;99.17;95313.77;107489;1284;39984;-76
2021/12/10 07:03:59;;;;;;;98.60;51.60;;;;;;;-1.96;99.18;95304.70;107458;1282;72663;-76
2021/12/10 07:06:29;;;;;;;85.10;44.10;;;;;;;-1.96;99.61;95310.93;107565;1285;44600;-76
2021/12/10 07:09:00;;;;;;;88.20;39.10;;;;;;;-1.94;99.51;95316.88;107501;1284;39038;-76
2021/12/10 07:11:29;;;;;;;76.80;42.10;;;;;;;-1.93;99.73;95317.17;107411;1284;46707;-76
2021/12/10 07:13:59;;;;;;;73.00;38.50;;;;;;;-1.88;99.83;95317.30;107432;1285;47134;-76
2021/12/10 07:16:30;;;;;;;62.60;36.80;;;;;;;-1.81;99.77;95315.67;107413;1285;34491;-76
2021/12/10 07:19:00;;;;;;;61.40;32.30;;;;;;;-1.73;100.00;95311.44;107492;1284;30763;-76
2021/12/10 07:21:32;;;;;;;54.80;31.30;;;;;;;-1.67;99.99;95309.33;107484;1285;42592;-76
2021/12/10 07:24:02;;;;;;;64.10;33.40;;;;;;;-1.61;99.82;95318.20;107525;1284;41320;-76
2021/12/10 07:26:32;;;;;;;88.00;43.30;;;;;;;-1.56;99.91;95326.65;107474;1285;39406;-76
2021/12/10 07:29:03;;;;;;;79.00;41.10;;;;;;;-1.60;99.97;95324.30;107485;1285;36403;-76
2021/12/10 07:31:33;;;;;;;73.00;40.00;;;;;;;-1.61;99.92;95323.25;107440;1284;51323;-76
2021/12/10 07:34:03;;;;;;;85.50;44.30;;;;;;;-1.57;99.87;95321.95;107307;1285;228686;-76
2021/12/10 07:36:32;;;;;;;80.50;44.00;;;;;;;-1.54;99.88;95322.14;107442;1284;43405;-76
2021/12/10 07:39:03;;;;;;;86.50;42.60;;;;;;;-1.48;99.87;95322.38;107514;1284;28555;-76
2021/12/10 07:41:32;;;;;;;70.00;38.70;;;;;;;-1.41;99.92;95321.88;107475;1285;36537;-76
2021/12/10 07:44:01;;;;;;;63.60;35.80;;;;;;;-1.34;99.92;95318.69;107475;1285;32065;-76
2021/12/10 07:46:32;;;;;;;63.50;34.90;;;;;;;-1.26;100.00;95315.90;107478;1285;41338;-76
2021/12/10 07:49:02;;;;;;;65.30;35.80;;;;;;;-1.15;100.00;95319.86;107481;1285;32635;-76
2021/12/10 07:51:33;;;;;;;56.90;33.30;;;;;;;-1.07;100.00;95314.48;107448;1285;51714;-76
2021/12/10 07:54:04;;;;;;;75.10;38.40;;;;;;;-0.96;100.00;95309.60;107459;1285;42147;-76
2021/12/10 07:56:34;;;;;;;71.70;39.10;;;;;;;-0.89;100.00;95306.02;107467;1285;41848;-76
2021/12/10 07:59:03;;;;;;;65.90;38.30;;;;;;;-0.78;99.97;95308.83;107476;1285;31655;-76
2021/12/10 08:01:33;;;;;;;64.60;36.50;;;;;;;-0.64;100.00;95307.83;107459;1284;47421;-76
2021/12/10 08:04:05;;;;;;;61.80;33.20;;;;;;;-0.38;100.00;95306.28;107489;1285;33315;-76
2021/12/10 08:06:36;;;;;;;57.70;32.80;;;;;;;0.03;100.00;95308.71;107550;1284;40897;-76
2021/12/10 08:09:07;;;;;;;60.70;34.30;;;;;;;0.23;100.00;95307.16;107620;1285;50128;-76
2021/12/10 08:11:37;;;;;;;64.70;35.00;;;;;;;0.26;99.75;95307.71;107484;1284;40983;-76
2021/12/10 08:14:06;;;;;;;89.80;46.50;;;;;;;0.23;99.53;95309.60;107483;1285;60247;-76
2021/12/10 08:16:36;;;;;;;73.50;42.20;;;;;;;0.03;98.72;95313.09;107531;1284;41101;-76
2021/12/10 08:19:06;;;;;;;63.20;38.60;;;;;;;-0.14;98.74;95318.00;107479;1285;35106;-76
2021/12/10 08:21:35;;;;;;;64.10;36.30;;;;;;;-0.11;99.00;95321.89;107547;1285;34958;-76
2021/12/10 08:24:05;;;;;;;41.20;25.30;;;;;;;0.06;99.10;95314.79;107467;1284;42970;-76
2021/12/10 08:26:35;;;;;;;28.90;16.60;;;;;;;0.22;99.13;95323.27;107473;1285;41094;-76
2021/12/10 08:29:06;;;;;;;35.90;21.50;;;;;;;0.52;99.26;95326.23;107445;1285;42275;-76
2021/12/10 08:31:35;;;;;;;35.90;20.60;;;;;;;0.94;99.65;95329.52;107576;1284;32382;-76
2021/12/10 08:34:05;;;;;;;32.10;18.10;;;;;;;1.38;99.93;95328.22;107470;1285;45726;-76
2021/12/10 08:36:36;;;;;;;32.70;19.50;;;;;;;1.73;99.38;95328.33;107532;1285;32673;-76
2021/12/10 08:39:08;;;;;;;27.50;16.40;;;;;;;1.99;98.95;95329.02;107504;1285;44917;-76
2021/12/10 08:41:38;;;;;;;31.90;19.20;;;;;;;2.18;98.25;95329.77;107498;1285;42481;-76
2021/12/10 08:44:09;;;;;;;31.80;19.70;;;;;;;2.13;97.35;95332.34;107500;1285;37323;-76
2021/12/10 08:46:40;;;;;;;26.10;16.10;;;;;;;2.13;96.75;95328.55;107516;1285;40319;-76
2021/12/10 08:49:10;;;;;;;25.60;15.50;;;;;;;2.14;96.44;95326.59;107464;1285;43125;-76
2021/12/10 08:51:42;;;;;;;23.80;14.00;;;;;;;2.08;95.73;95327.86;107518;1284;32244;-76
2021/12/10 08:54:12;;;;;;;36.30;21.80;;;;;;;2.05;95.58;95333.60;107504;1284;37013;-76
2021/12/10 08:56:41;;;;;;;;;;;;;;;1.99;95.69;95333.84;107596;1284;38818;-76
2021/12/10 08:59:10;;;;;;;33.60;21.00;;;;;;;1.94;95.23;95332.52;107448;1285;39026;-76
2021/12/10 09:01:43;;;;;;;34.30;22.10;;;;;;;1.77;94.82;95332.33;107484;1284;52140;-76
2021/12/10 09:04:13;;;;;;;29.10;18.70;;;;;;;1.63;94.82;95328.17;107573;1284;32748;-76
2021/12/10 09:06:48;;;;;;;31.50;20.00;;;;;;;1.71;95.19;95325.34;107462;1285;42445;-76
2021/12/10 09:09:19;;;;;;;29.40;18.80;;;;;;;1.87;95.61;95322.13;107617;1284;34928;-76
2021/12/10 09:11:51;;;;;;;34.10;20.40;;;;;;;1.94;95.75;95320.48;107572;1285;40506;-76
2021/12/10 09:14:26;;;;;;;32.30;20.00;;;;;;;1.97;95.68;95320.35;107520;1285;37513;-76
2021/12/10 09:16:56;;;;;;;31.50;18.20;;;;;;;1.98;95.42;95319.52;107519;1284;33232;-76
2021/12/10 09:19:26;;;;;;;29.90;18.30;;;;;;;2.03;95.44;95319.27;107562;1285;34673;-76
2021/12/10 09:21:55;;;;;;;27.50;15.60;;;;;;;2.03;95.22;95312.73;107571;1284;33060;-76
2021/12/10 09:24:25;;;;;;;19.00;13.20;;;;;;;1.94;94.70;95309.61;107508;1284;39996;-76
2021/12/10 09:26:57;;;;;;;20.30;13.20;;;;;;;1.96;94.67;95304.96;107435;1285;33479;-76
2021/12/10 09:29:31;;;;;;;21.60;11.90;;;;;;;2.01;94.70;95301.02;107455;1284;36680;-76
2021/12/10 09:32:01;;;;;;;22.40;13.30;;;;;;;2.08;94.57;95295.23;107502;1285;33658;-76
2021/12/10 09:34:31;;;;;;;21.90;12.70;;;;;;;2.19;94.58;95299.25;107451;1284;35740;-76
2021/12/10 09:37:00;;;;;;;22.80;13.10;;;;;;;2.33;94.77;95303.89;107476;1285;45830;-76
2021/12/10 09:39:31;;;;;;;25.20;15.40;;;;;;;2.35;94.59;95302.90;107560;1284;29343;-76
2021/12/10 09:42:01;;;;;;;40.50;21.50;;;;;;;2.26;94.28;95303.41;107528;1285;34801;-76
2021/12/10 09:44:30;;;;;;;38.30;24.80;;;;;;;2.20;94.23;95305.84;107481;1285;38431;-76
2021/12/10 09:47:00;;;;;;;47.60;27.70;;;;;;;2.25;94.30;95300.27;107559;1284;35403;-76
2021/12/10 09:49:29;;;;;;;52.80;30.50;;;;;;;2.21;94.21;95303.33;107526;1285;39120;-76
2021/12/10 09:52:01;;;;;;;53.50;32.80;;;;;;;2.02;93.76;95302.48;107484;1285;32822;-76
2021/12/10 09:54:32;;;;;;;62.00;35.50;;;;;;;1.88;93.63;95299.98;107500;1284;33686;-76
2021/12/10 09:57:05;;;;;;;53.60;32.10;;;;;;;1.85;93.81;95296.36;107520;1285;34921;-76
2021/12/10 09:59:35;;;;;;;45.50;27.30;;;;;;;1.89;94.03;95290.10;107606;1284;28492;-76
2021/12/10 10:02:05;;;;;;;57.70;34.00;;;;;;;1.81;93.82;95287.61;107491;1284;67572;-76
2021/12/10 10:04:35;;;;;;;;;;;;;;;1.57;93.42;95298.77;107567;1285;30352;-76
2021/12/10 10:07:08;;;;;;;64.90;37.60;;;;;;;1.36;93.53;95302.58;107644;1284;48315;-76
2021/12/10 10:09:37;;;;;;;56.60;36.60;;;;;;;1.21;93.86;95310.15;107533;1284;31349;-76
2021/12/10 10:12:09;;;;;;;74.50;41.50;;;;;;;1.27;93.83;95312.17;107544;1285;35922;-76
2021/12/10 10:14:39;;;;;;;113.10;55.00;;;;;;;1.16;93.72;95308.40;107457;1285;45675;-77
2021/12/10 10:17:10;;;;;;;86.20;46.00;;;;;;;0.90;93.35;95314.15;107563;1284;33144;-76
2021/12/10 10:19:40;;;;;;;88.00;48.10;;;;;;;0.62;93.38;95305.41;107531;1284;30563;-76
2021/12/10 10:22:11;;;;;;;;;;;;;;;0.32;93.44;95300.20;107491;1285;50743;-76
2021/12/10 10:24:41;;;;;;;88.00;48.20;;;;;;;0.12;93.68;95297.29;107559;1284;32003;-76
2021/12/10 10:27:15;;;;;;;93.70;51.20;;;;;;;0.05;94.37;95295.66;107504;1284;34942;-76
2021/12/10 10:29:49;;;;;;;95.60;51.70;;;;;;;0.05;95.00;95291.02;107444;1284;38599;-76
2021/12/10 10:32:21;;;;;;;92.70;51.30;;;;;;;0.09;95.01;95295.44;107545;1284;37642;-76
2021/12/10 10:34:55;;;;;;;92.20;50.10;;;;;;;0.18;95.40;95302.68;107624;1284;30967;-75
2021/12/10 10:37:25;;;;;;;92.20;48.80;;;;;;;0.32;95.45;95302.14;107495;1284;30620;-76
2021/12/10 10:39:54;;;;;;;88.20;49.20;;;;;;;0.32;95.21;95304.08;107556;1285;30762;-76
2021/12/10 10:42:27;;;;;;;90.70;50.70;;;;;;;0.26;94.95;95305.83;107481;1284;37471;-76
2021/12/10 10:45:02;;;;;;;94.70;49.80;;;;;;;0.19;95.05;95303.79;107657;1284;29364;-76
2021/12/10 10:47:31;;;;;;;93.80;51.40;;;;;;;0.14;95.05;95303.00;107495;1285;31654;-76
2021/12/10 10:50:11;;;;;;;92.90;51.40;;;;;;;0.17;95.17;95302.77;107469;1284;47802;-76
2021/12/10 10:52:43;;;;;;;94.10;49.20;;;;;;;0.25;95.49;95306.30;107556;1284;32176;-76
2021/12/10 10:55:23;;;;;;;88.80;47.00;;;;;;;0.40;95.91;95308.75;107542;1284;40904;-76
2021/12/10 10:57:57;;;;;;;93.10;49.10;;;;;;;0.56;95.83;95307.22;107667;1284;35184;-76
2021/12/10 11:00:32;;;;;;;102.20;52.40;;;;;;;0.72;95.92;95304.50;107527;1284;32296;-77
2021/12/10 11:03:08;;;;;;;83.30;48.20;;;;;;;0.66;95.12;95304.29;107592;1285;34174;-76
2021/12/10 11:05:46;;;;;;;94.30;51.00;;;;;;;0.54;95.15;95303.86;107500;1284;33154;-76
2021/12/10 11:08:25;;;;;;;86.80;46.50;;;;;;;0.52;95.28;95307.45;107515;1284;39795;-76
2021/12/10 11:10:58;;;;;;;85.90;48.00;;;;;;;0.54;95.07;95305.06;107416;1284;31924;-77
2021/12/10 11:13:31;;;;;;;82.10;45.70;;;;;;;0.51;95.19;95307.85;107503;1284;42584;-76
2021/12/10 11:16:03;;;;;;;85.80;46.50;;;;;;;0.48;95.19;95306.58;107417;1284;39413;-76
2021/12/10 11:18:45;;;;;;;83.20;46.80;;;;;;;0.43;95.06;95306.79;107485;1284;47647;-77
2021/12/10 11:21:15;;;;;;;83.60;46.40;;;;;;;0.41;94.98;95304.89;107474;1284;41247;-76
2021/12/10 11:23:44;;;;;;;83.20;46.20;;;;;;;0.41;95.00;95300.45;107516;1284;35259;-76
2021/12/10 11:26:13;;;;;;;96.80;51.00;;;;;;;0.39;95.40;95300.13;107509;1284;38383;-76
2021/12/10 11:28:42;;;;;;;83.70;45.80;;;;;;;0.38;94.91;95302.51;107483;1284;42059;-76
2021/12/10 11:31:14;;;;;;;85.10;46.60;;;;;;;0.34;94.93;95303.31;107518;1284;35228;-76
2021/12/10 11:33:49;;;;;;;88.60;46.90;;;;;;;0.26;95.15;95305.98;107536;1285;32015;-77
2021/12/10 11:36:22;;;;;;;83.80;46.50;;;;;;;0.19;95.25;95303.47;107566;1284;31125;-77
2021/12/10 11:38:55;;;;;;;89.60;48.30;;;;;;;0.18;95.28;95301.08;107566;1284;31690;-77